Time;durP1;ratioP1;P1;durP2;ratioP2;P2;SDS_P1;SDS_P2;PMS_P1;PMS_P2;Temp;Humidity;BMP_temperature;BMP_pressure;BME280_temperature;BME280_humidity;BME280_pressure;Samples;Min_cycle;Max_cycle;Signal;HPM_P1;HPM_P2
2023/12/25 00:02:09;;;;;;;15.05;3.58;;;12.10;99.90;;;;;;5074631;28;20043;-75
2023/12/25 00:04:35;;;;;;;19.30;3.58;;;12.10;99.90;;;;;;5060206;27;20040;-75
2023/12/25 00:07:01;;;;;;;14.05;3.55;;;12.10;99.90;;;;;;5073504;27;20593;-75
2023/12/25 00:09:26;;;;;;;16.77;3.63;;;12.10;99.90;;;;;;5082599;28;20122;-76
2023/12/25 00:11:52;;;;;;;15.13;3.25;;;12.10;99.90;;;;;;5082895;28;20078;-75
2023/12/25 00:14:18;;;;;;;12.13;3.55;;;12.10;99.90;;;;;;5078516;28;20040;-75
2023/12/25 00:16:44;;;;;;;16.45;3.50;;;12.00;99.90;;;;;;5082517;27;20062;-75
2023/12/25 00:19:10;;;;;;;13.48;3.40;;;12.00;99.90;;;;;;5086167;27;20036;-76
2023/12/25 00:21:36;;;;;;;16.30;4.13;;;12.10;99.90;;;;;;5095538;28;20047;-76
2023/12/25 00:24:03;;;;;;;15.13;3.38;;;12.10;99.90;;;;;;5070712;28;20055;-75
2023/12/25 00:26:29;;;;;;;12.88;3.35;;;12.10;99.90;;;;;;5064705;28;20114;-76
2023/12/25 00:28:55;;;;;;;15.52;3.50;;;12.10;99.90;;;;;;5084661;27;20494;-76
2023/12/25 00:31:21;;;;;;;13.30;3.72;;;12.10;99.90;;;;;;5090068;28;20040;-75
2023/12/25 00:33:47;;;;;;;13.82;3.25;;;12.10;99.90;;;;;;5068550;27;20050;-76
2023/12/25 00:36:13;;;;;;;15.75;3.60;;;12.00;99.90;;;;;;5081176;28;20406;-76
2023/12/25 00:38:39;;;;;;;11.48;2.88;;;12.00;99.90;;;;;;5080851;27;20059;-76
2023/12/25 00:41:04;;;;;;;16.00;2.90;;;12.00;99.90;;;;;;5082547;28;20047;-76
2023/12/25 00:43:30;;;;;;;10.90;2.92;;;12.00;99.90;;;;;;5081664;28;20146;-76
2023/12/25 00:45:57;;;;;;;10.32;2.90;;;12.00;99.90;;;;;;5066099;27;20077;-76
2023/12/25 00:48:23;;;;;;;12.73;3.08;;;12.00;99.90;;;;;;5069693;28;20564;-75
2023/12/25 00:50:49;;;;;;;10.95;2.70;;;11.90;99.90;;;;;;5081018;28;20127;-76
2023/12/25 00:53:15;;;;;;;9.27;2.35;;;12.00;99.90;;;;;;5089305;28;20525;-76
2023/12/25 00:55:44;;;;;;;10.93;2.80;;;11.90;99.90;;;;;;5074661;27;20412;-76
2023/12/25 00:58:09;;;;;;;12.75;2.63;;;11.80;99.90;;;;;;5093483;28;20493;-76
2023/12/25 01:00:35;;;;;;;13.38;2.60;;;11.90;99.90;;;;;;5085366;28;20043;-76
2023/12/25 01:03:01;;;;;;;14.20;3.20;;;11.90;99.90;;;;;;5064698;27;20036;-76
2023/12/25 01:05:26;;;;;;;6.78;2.10;;;11.80;99.90;;;;;;5078408;28;20054;-76
2023/12/25 01:07:52;;;;;;;12.15;3.15;;;11.80;99.90;;;;;;5065383;28;20047;-76
2023/12/25 01:10:18;;;;;;;13.57;3.42;;;11.80;99.90;;;;;;5070643;28;20165;-76
2023/12/25 01:12:44;;;;;;;10.75;2.90;;;11.80;99.90;;;;;;5082565;27;20814;-77
2023/12/25 01:15:12;;;;;;;11.98;2.72;;;11.80;99.90;;;;;;5075782;27;20748;-77
2023/12/25 01:17:38;;;;;;;13.65;3.20;;;11.70;99.90;;;;;;5073215;27;20056;-77
2023/12/25 01:20:04;;;;;;;9.88;2.50;;;11.70;99.90;;;;;;5067896;28;20032;-76
2023/12/25 01:22:30;;;;;;;12.35;2.70;;;11.70;99.90;;;;;;5087877;27;20796;-76
2023/12/25 01:24:56;;;;;;;10.93;2.53;;;11.70;99.90;;;;;;5088295;27;20043;-76
2023/12/25 01:27:21;;;;;;;11.00;2.15;;;11.60;99.90;;;;;;5063229;27;20068;-76
2023/12/25 01:29:47;;;;;;;8.38;2.22;;;11.60;99.90;;;;;;5071131;27;20451;-77
2023/12/25 01:32:13;;;;;;;10.57;2.47;;;11.60;99.90;;;;;;5093392;27;20452;-77
2023/12/25 01:34:39;;;;;;;11.93;2.80;;;11.60;99.90;;;;;;5068113;28;20083;-76
2023/12/25 01:37:04;;;;;;;13.27;2.78;;;11.60;99.90;;;;;;5089184;27;20040;-76
2023/12/25 01:39:30;;;;;;;9.45;2.33;;;11.60;99.90;;;;;;5081242;28;20043;-75
2023/12/25 01:41:56;;;;;;;11.52;2.53;;;11.60;99.90;;;;;;5067033;28;20062;-76
2023/12/25 01:44:22;;;;;;;10.73;2.92;;;11.60;99.90;;;;;;5068713;28;21366;-76
2023/12/25 01:46:48;;;;;;;12.73;2.70;;;11.60;99.90;;;;;;5077827;27;20048;-76
2023/12/25 01:49:14;;;;;;;7.95;2.30;;;11.60;99.90;;;;;;5087744;27;20045;-76
2023/12/25 01:51:39;;;;;;;13.73;2.35;;;11.60;99.90;;;;;;5078258;28;20146;-76
2023/12/25 01:54:07;;;;;;;10.38;2.95;;;11.60;99.90;;;;;;5074729;27;20035;-75
2023/12/25 01:56:33;;;;;;;12.52;2.42;;;11.60;99.90;;;;;;5079149;28;20100;-76
2023/12/25 01:58:59;;;;;;;9.25;2.55;;;11.60;99.90;;;;;;5078511;28;20440;-76
2023/12/25 02:01:24;;;;;;;10.50;2.30;;;11.60;99.90;;;;;;5095032;28;20047;-76
2023/12/25 02:03:50;;;;;;;11.88;2.75;;;11.60;99.90;;;;;;5087052;28;20343;-76
2023/12/25 02:06:17;;;;;;;9.18;2.38;;;11.60;99.90;;;;;;5062974;28;20493;-76
2023/12/25 02:08:43;;;;;;;11.88;3.03;;;11.60;99.90;;;;;;5079750;28;20154;-76
2023/12/25 02:11:08;;;;;;;10.98;2.03;;;11.70;99.90;;;;;;5091145;27;20129;-75
2023/12/25 02:13:40;;;;;;;12.10;2.47;;;11.60;99.90;;;;;;5068147;28;20130;-76
2023/12/25 02:16:08;;;;;;;12.30;2.75;;;11.60;99.90;;;;;;5065016;28;20089;-77
2023/12/25 02:18:34;;;;;;;8.23;2.40;;;11.50;99.90;;;;;;5061013;28;20089;-75
2023/12/25 02:21:00;;;;;;;10.57;2.78;;;11.50;99.90;;;;;;5077888;28;20036;-76
2023/12/25 02:23:28;;;;;;;11.20;2.70;;;11.50;99.90;;;;;;5087074;27;20054;-76
2023/12/25 02:25:56;;;;;;;9.15;2.30;;;11.50;99.90;;;;;;5085606;28;20044;-76
2023/12/25 02:28:22;;;;;;;12.45;2.38;;;11.50;99.90;;;;;;5074656;28;20096;-75
2023/12/25 02:30:48;;;;;;;9.00;2.17;;;11.50;99.90;;;;;;5081775;28;20686;-74
2023/12/25 02:33:14;;;;;;;9.05;1.92;;;11.60;99.90;;;;;;5067168;28;20040;-75
2023/12/25 02:35:40;;;;;;;10.02;2.20;;;11.60;99.90;;;;;;5073876;28;20063;-75
2023/12/25 02:38:06;;;;;;;9.25;2.00;;;11.60;99.90;;;;;;5066554;28;20042;-77
2023/12/25 02:40:31;;;;;;;10.63;2.17;;;11.50;99.90;;;;;;5090594;28;20191;-75
2023/12/25 02:42:57;;;;;;;9.23;2.13;;;11.60;99.90;;;;;;5081330;28;20047;-75
2023/12/25 02:45:23;;;;;;;11.93;2.60;;;11.60;99.90;;;;;;5086005;28;20449;-83
2023/12/25 02:47:49;;;;;;;9.32;2.38;;;11.50;99.90;;;;;;5064136;28;20563;-81
2023/12/25 02:50:14;;;;;;;9.80;2.00;;;11.50;99.90;;;;;;5089957;28;20043;-82
2023/12/25 02:52:40;;;;;;;12.07;2.08;;;11.50;99.90;;;;;;5084658;28;20067;-82
2023/12/25 02:55:06;;;;;;;6.68;2.17;;;11.50;99.90;;;;;;5079966;28;20039;-81
2023/12/25 02:57:32;;;;;;;8.80;1.90;;;11.50;99.90;;;;;;5082768;28;20965;-82
2023/12/25 02:59:57;;;;;;;12.80;2.50;;;11.50;99.90;;;;;;5076487;27;20043;-84
2023/12/25 03:02:23;;;;;;;5.90;1.65;;;11.50;99.90;;;;;;5079913;27;20042;-81
2023/12/25 03:04:49;;;;;;;6.57;1.85;;;11.50;99.90;;;;;;5078075;28;20047;-81
2023/12/25 03:07:15;;;;;;;11.98;2.13;;;11.50;99.90;;;;;;5068680;28;20048;-81
2023/12/25 03:09:41;;;;;;;8.80;1.83;;;11.50;99.90;;;;;;5057895;28;20056;-80
2023/12/25 03:12:07;;;;;;;7.90;2.00;;;11.50;99.90;;;;;;5073844;28;20044;-83
2023/12/25 03:14:32;;;;;;;12.75;2.00;;;11.40;99.90;;;;;;5070699;28;20047;-83
2023/12/25 03:16:58;;;;;;;9.95;2.22;;;11.50;99.90;;;;;;5057917;28;20047;-83
2023/12/25 03:19:24;;;;;;;9.00;1.80;;;11.50;99.90;;;;;;5070464;28;20065;-76
2023/12/25 03:21:49;;;;;;;9.27;2.00;;;11.50;99.90;;;;;;5076275;28;20044;-76
2023/12/25 03:24:15;;;;;;;9.13;2.22;;;11.50;99.90;;;;;;5081165;28;20127;-76
2023/12/25 03:26:42;;;;;;;9.23;2.10;;;11.40;99.90;;;;;;5082527;28;20059;-77
2023/12/25 03:29:08;;;;;;;7.20;1.50;;;11.50;99.90;;;;;;5087172;28;20039;-76
2023/12/25 03:31:34;;;;;;;10.30;2.08;;;11.50;99.90;;;;;;5075899;28;20044;-76
2023/12/25 03:34:00;;;;;;;9.65;2.10;;;11.40;99.90;;;;;;5059155;28;20044;-76
2023/12/25 03:36:26;;;;;;;10.80;2.17;;;11.40;99.90;;;;;;5070145;28;20078;-76
2023/12/25 03:38:52;;;;;;;9.05;1.92;;;11.40;99.90;;;;;;5047319;28;20063;-76
2023/12/25 03:41:17;;;;;;;11.18;2.55;;;11.40;99.90;;;;;;5077198;28;20035;-76
2023/12/25 03:43:43;;;;;;;8.70;1.65;;;11.40;99.90;;;;;;5073249;28;20044;-77
2023/12/25 03:46:09;;;;;;;9.27;2.30;;;11.50;99.90;;;;;;5071583;28;20044;-77
2023/12/25 03:48:35;;;;;;;10.73;2.20;;;11.40;99.90;;;;;;5072395;28;20048;-76
2023/12/25 03:51:00;;;;;;;8.32;1.75;;;11.50;99.90;;;;;;5058959;28;20456;-76
2023/12/25 03:53:27;;;;;;;10.07;2.25;;;11.40;99.90;;;;;;5070963;28;20066;-76
2023/12/25 03:55:53;;;;;;;8.60;1.85;;;11.50;99.90;;;;;;5064429;28;20467;-75
2023/12/25 03:58:18;;;;;;;9.18;1.75;;;11.40;99.90;;;;;;5060665;28;20068;-74
2023/12/25 04:00:44;;;;;;;8.13;2.22;;;11.40;99.90;;;;;;5069357;28;20539;-74
2023/12/25 04:03:11;;;;;;;6.95;1.60;;;11.40;99.90;;;;;;5072138;28;20645;-76
2023/12/25 04:05:37;;;;;;;8.75;1.88;;;11.40;99.90;;;;;;5072667;28;20080;-76
2023/12/25 04:08:03;;;;;;;8.98;1.63;;;11.50;99.90;;;;;;5083336;28;20082;-76
2023/12/25 04:10:29;;;;;;;9.82;2.03;;;11.40;99.90;;;;;;5081144;28;20039;-76
2023/12/25 04:12:55;;;;;;;8.20;2.17;;;11.40;99.90;;;;;;5078694;28;20417;-75
2023/12/25 04:15:24;;;;;;;10.73;1.52;;;11.40;99.90;;;;;;5071497;27;20043;-76
2023/12/25 04:17:49;;;;;;;9.38;1.85;;;11.40;99.90;;;;;;5080737;28;20146;-75
2023/12/25 04:20:15;;;;;;;7.10;2.13;;;11.40;99.90;;;;;;5079846;28;20044;-75
2023/12/25 04:22:41;;;;;;;8.70;1.80;;;11.40;99.90;;;;;;5067167;28;20414;-76
2023/12/25 04:25:07;;;;;;;8.15;2.08;;;11.40;99.90;;;;;;5076921;28;20075;-77
2023/12/25 04:27:32;;;;;;;9.93;1.92;;;11.40;99.90;;;;;;5067678;28;20476;-76
2023/12/25 04:29:58;;;;;;;8.77;1.58;;;11.40;99.90;;;;;;5055525;28;20459;-76
2023/12/25 04:32:24;;;;;;;9.93;2.15;;;11.40;99.90;;;;;;5074106;28;20093;-76
2023/12/25 04:34:49;;;;;;;7.85;1.60;;;11.40;99.90;;;;;;5066879;28;20052;-77
2023/12/25 04:37:15;;;;;;;8.00;1.65;;;11.40;99.90;;;;;;5067119;28;20718;-76
2023/12/25 04:39:41;;;;;;;11.73;1.80;;;11.40;99.90;;;;;;5069270;28;20486;-77
2023/12/25 04:42:07;;;;;;;9.10;1.98;;;11.40;99.90;;;;;;5065533;28;20036;-76
2023/12/25 04:44:33;;;;;;;9.05;1.88;;;11.40;99.90;;;;;;5075202;28;20051;-77
2023/12/25 04:46:59;;;;;;;8.73;2.10;;;11.40;99.90;;;;;;5082159;28;20039;-76
2023/12/25 04:49:24;;;;;;;8.30;1.70;;;11.40;99.90;;;;;;5066425;28;20569;-75
2023/12/25 04:51:50;;;;;;;8.98;1.65;;;11.40;99.90;;;;;;5052820;28;20046;-76
2023/12/25 04:54:17;;;;;;;9.10;2.30;;;11.40;99.90;;;;;;5072174;28;20036;-75
2023/12/25 04:56:43;;;;;;;12.07;2.17;;;11.40;99.90;;;;;;5069503;28;20067;-76
2023/12/25 04:59:09;;;;;;;12.05;2.25;;;11.30;99.90;;;;;;5083443;28;20055;-76
2023/12/25 05:01:35;;;;;;;11.63;2.25;;;11.40;99.90;;;;;;5072788;28;20113;-76
2023/12/25 05:04:01;;;;;;;9.95;2.13;;;11.40;99.90;;;;;;5069673;28;20040;-75
2023/12/25 05:06:26;;;;;;;9.45;1.90;;;11.40;99.90;;;;;;5063965;28;20044;-76
2023/12/25 05:08:52;;;;;;;8.20;1.80;;;11.40;99.90;;;;;;5078620;28;20044;-75
2023/12/25 05:11:18;;;;;;;8.02;1.85;;;11.40;99.90;;;;;;5072084;28;20513;-75
2023/12/25 05:13:43;;;;;;;9.35;2.00;;;11.40;99.90;;;;;;5052285;28;20606;-76
2023/12/25 05:16:09;;;;;;;7.13;1.50;;;11.40;99.90;;;;;;5061718;28;20032;-75
2023/12/25 05:18:35;;;;;;;7.65;1.65;;;11.40;99.90;;;;;;5081252;28;20077;-75
2023/12/25 05:21:01;;;;;;;8.88;1.33;;;11.40;99.90;;;;;;5072853;28;20043;-75
2023/12/25 05:23:26;;;;;;;8.82;2.38;;;11.50;99.90;;;;;;5059482;28;20046;-76
2023/12/25 05:25:52;;;;;;;10.23;1.90;;;11.50;99.90;;;;;;5053243;28;20067;-75
2023/12/25 05:28:18;;;;;;;9.85;1.83;;;11.50;99.90;;;;;;5078072;28;20047;-82
2023/12/25 05:30:44;;;;;;;6.97;1.60;;;11.40;99.90;;;;;;5078765;28;20098;-82
2023/12/25 05:33:09;;;;;;;8.65;1.58;;;11.50;99.90;;;;;;5064013;28;20070;-80
2023/12/25 05:35:35;;;;;;;8.48;1.90;;;11.40;99.90;;;;;;5068608;28;20498;-82
2023/12/25 05:38:01;;;;;;;8.32;2.08;;;11.40;99.90;;;;;;5062364;28;20089;-81
2023/12/25 05:40:26;;;;;;;7.85;1.98;;;11.40;99.90;;;;;;5076678;28;20040;-81
2023/12/25 05:42:52;;;;;;;9.52;2.15;;;11.40;99.90;;;;;;5073388;28;20693;-82
2023/12/25 05:45:19;;;;;;;7.65;1.67;;;11.40;99.90;;;;;;5080667;28;20047;-83
2023/12/25 05:47:45;;;;;;;9.68;1.73;;;11.40;99.90;;;;;;5082881;28;20048;-82
2023/12/25 05:50:11;;;;;;;8.85;2.17;;;11.40;99.90;;;;;;5074390;28;20390;-82
2023/12/25 05:52:36;;;;;;;7.45;1.80;;;11.40;99.90;;;;;;5069419;28;20047;-83
2023/12/25 05:55:02;;;;;;;7.32;1.80;;;11.40;99.90;;;;;;5055442;28;20574;-82
2023/12/25 05:57:28;;;;;;;9.23;2.00;;;11.40;99.90;;;;;;5078195;28;20093;-82
2023/12/25 05:59:54;;;;;;;9.60;2.28;;;11.40;99.90;;;;;;5070898;28;20036;-81
2023/12/25 06:02:20;;;;;;;9.82;1.80;;;11.40;99.90;;;;;;5087000;28;20047;-79
2023/12/25 06:04:46;;;;;;;8.65;1.90;;;11.30;99.90;;;;;;5073184;27;20047;-81
2023/12/25 06:07:12;;;;;;;8.00;1.75;;;11.30;99.90;;;;;;5070805;28;20126;-83
2023/12/25 06:09:38;;;;;;;7.97;1.70;;;11.30;99.90;;;;;;5068115;28;20048;-82
2023/12/25 06:12:07;;;;;;;9.00;1.75;;;11.30;99.90;;;;;;5081625;27;20108;-81
2023/12/25 06:14:33;;;;;;;8.90;1.88;;;11.20;99.90;;;;;;5080831;28;20047;-82
2023/12/25 06:16:59;;;;;;;10.65;2.30;;;11.30;99.90;;;;;;5078405;28;20135;-82
2023/12/25 06:19:25;;;;;;;8.57;2.00;;;11.20;99.90;;;;;;5060252;28;20478;-82
2023/12/25 06:21:51;;;;;;;7.30;1.67;;;11.20;99.90;;;;;;5066207;28;20092;-82
2023/12/25 06:24:16;;;;;;;7.78;1.83;;;11.20;99.90;;;;;;5064981;28;20040;-82
2023/12/25 06:26:42;;;;;;;9.45;1.92;;;11.10;99.90;;;;;;5063917;28;20048;-82
2023/12/25 06:29:08;;;;;;;9.68;2.45;;;11.10;99.90;;;;;;5058040;28;20113;-82
2023/12/25 06:31:34;;;;;;;8.38;2.08;;;11.00;99.90;;;;;;5075605;28;20079;-82
2023/12/25 06:33:59;;;;;;;13.43;2.42;;;11.00;99.90;;;;;;5067894;28;20563;-83
2023/12/25 06:36:25;;;;;;;7.47;1.55;;;11.10;99.90;;;;;;5063864;28;20079;-82
2023/12/25 06:38:51;;;;;;;9.73;1.92;;;10.90;99.90;;;;;;5054887;28;20077;-82
2023/12/25 06:41:17;;;;;;;8.98;2.05;;;10.90;99.90;;;;;;5069746;28;20040;-82
2023/12/25 06:43:43;;;;;;;7.13;1.80;;;10.90;99.90;;;;;;5062191;28;20044;-82
2023/12/25 06:46:09;;;;;;;10.43;2.30;;;10.80;99.90;;;;;;5077333;28;21773;-82
2023/12/25 06:48:34;;;;;;;6.45;1.75;;;10.90;99.90;;;;;;5067342;28;20051;-82
2023/12/25 06:51:00;;;;;;;9.73;2.03;;;10.80;99.90;;;;;;5075837;28;20432;-83
2023/12/25 06:53:26;;;;;;;8.35;2.13;;;10.80;99.90;;;;;;5067055;28;20057;-83
2023/12/25 06:55:52;;;;;;;8.52;1.90;;;10.80;99.90;;;;;;5070471;28;20612;-82
2023/12/25 06:58:17;;;;;;;9.82;1.88;;;10.80;99.90;;;;;;5078892;28;20123;-82
2023/12/25 07:00:43;;;;;;;11.75;2.80;;;10.80;99.90;;;;;;5056911;28;20052;-82
2023/12/25 07:03:09;;;;;;;8.65;2.30;;;10.70;99.90;;;;;;5056121;28;20055;-82
2023/12/25 07:05:35;;;;;;;8.38;2.10;;;10.80;99.90;;;;;;5076456;28;20105;-81
2023/12/25 07:08:00;;;;;;;9.45;2.05;;;10.70;99.90;;;;;;5066035;28;20035;-83
2023/12/25 07:10:27;;;;;;;8.50;2.08;;;10.70;99.90;;;;;;5074049;28;20048;-83
2023/12/25 07:12:52;;;;;;;11.07;2.20;;;10.60;99.90;;;;;;5064064;28;20039;-81
2023/12/25 07:15:21;;;;;;;9.25;1.98;;;10.60;99.90;;;;;;5085116;28;20043;-81
2023/12/25 07:17:47;;;;;;;10.50;1.90;;;10.60;99.90;;;;;;5065244;28;20046;-83
2023/12/25 07:20:13;;;;;;;11.50;2.38;;;10.60;99.90;;;;;;5054902;28;20040;-82
2023/12/25 07:22:39;;;;;;;9.82;2.15;;;10.70;99.90;;;;;;5071406;28;20044;-82
2023/12/25 07:25:06;;;;;;;13.35;2.63;;;10.60;99.90;;;;;;5054071;28;20054;-82
2023/12/25 07:27:32;;;;;;;8.05;1.88;;;10.60;99.90;;;;;;5072346;28;20044;-82
2023/12/25 07:29:58;;;;;;;12.68;2.33;;;10.60;99.90;;;;;;5081358;28;20511;-83
2023/12/25 07:32:24;;;;;;;13.63;2.78;;;10.50;99.90;;;;;;5073175;28;20036;-83
2023/12/25 07:34:50;;;;;;;11.82;2.33;;;10.60;99.90;;;;;;5089363;28;20044;-83
2023/12/25 07:37:15;;;;;;;9.80;2.30;;;10.60;99.90;;;;;;5094210;28;20082;-82
2023/12/25 07:39:42;;;;;;;9.43;1.92;;;10.50;99.90;;;;;;5063960;28;20050;-82
2023/12/25 07:42:08;;;;;;;11.75;2.25;;;10.50;99.90;;;;;;5079743;28;20047;-83
2023/12/25 07:44:39;;;;;;;11.95;2.40;;;10.50;99.90;;;;;;5086449;28;20053;-82
2023/12/25 07:47:05;;;;;;;10.00;1.80;;;10.50;99.90;;;;;;5083251;28;20040;-82
2023/12/25 07:49:31;;;;;;;14.57;2.80;;;10.50;99.90;;;;;;5067341;27;20028;-83
2023/12/25 07:51:57;;;;;;;9.55;2.15;;;10.40;99.90;;;;;;5087713;28;20035;-82
2023/12/25 07:54:23;;;;;;;15.80;2.63;;;10.40;99.90;;;;;;5091263;27;20082;-81
2023/12/25 07:56:48;;;;;;;11.65;2.25;;;10.40;99.90;;;;;;5091073;27;20128;-82
2023/12/25 07:59:14;;;;;;;10.07;2.15;;;10.40;99.90;;;;;;5093212;27;20511;-76
2023/12/25 08:01:40;;;;;;;9.27;2.47;;;10.40;99.90;;;;;;5084322;28;20044;-76
2023/12/25 08:04:06;;;;;;;11.93;2.40;;;10.40;99.90;;;;;;5071524;27;20099;-76
2023/12/25 08:06:32;;;;;;;10.75;2.13;;;10.30;99.90;;;;;;5070072;27;20077;-76
2023/12/25 08:08:57;;;;;;;9.95;1.80;;;10.30;99.90;;;;;;5070386;28;20138;-76
2023/12/25 08:11:23;;;;;;;11.18;2.55;;;10.30;99.90;;;;;;5096683;27;20039;-76
2023/12/25 08:13:49;;;;;;;10.20;2.20;;;10.30;99.90;;;;;;5070090;27;20475;-76
2023/12/25 08:16:15;;;;;;;8.52;2.00;;;10.30;99.90;;;;;;5098198;27;20054;-77
2023/12/25 08:18:40;;;;;;;9.35;2.53;;;10.30;99.90;;;;;;5085887;28;20492;-77
2023/12/25 08:21:07;;;;;;;9.80;2.35;;;10.30;99.90;;;;;;5071112;28;20513;-76
2023/12/25 08:23:33;;;;;;;12.15;2.28;;;10.30;99.90;;;;;;5088118;28;20067;-76
2023/12/25 08:26:00;;;;;;;7.95;2.00;;;10.30;99.90;;;;;;5065904;28;20044;-76
2023/12/25 08:28:29;;;;;;;11.30;1.90;;;10.30;99.90;;;;;;5081924;28;20047;-76
2023/12/25 08:30:54;;;;;;;9.75;2.42;;;10.30;99.90;;;;;;5069096;27;20040;-76
2023/12/25 08:33:20;;;;;;;8.25;2.10;;;10.30;99.90;;;;;;5089874;27;21097;-76
2023/12/25 08:35:46;;;;;;;9.02;2.42;;;10.20;99.90;;;;;;5068373;27;20042;-76
2023/12/25 08:38:12;;;;;;;13.95;2.25;;;10.20;99.90;;;;;;5092826;27;20035;-76
2023/12/25 08:40:38;;;;;;;13.48;2.35;;;10.20;99.90;;;;;;5088643;27;20043;-76
2023/12/25 08:43:04;;;;;;;10.88;2.40;;;10.20;99.90;;;;;;5070731;27;20050;-76
2023/12/25 08:45:29;;;;;;;11.43;2.75;;;10.10;99.90;;;;;;5072209;27;20067;-76
2023/12/25 08:47:58;;;;;;;10.57;2.13;;;10.10;99.90;;;;;;5068423;28;20046;-76
2023/12/25 08:50:23;;;;;;;11.98;2.45;;;10.10;99.90;;;;;;5091971;27;20075;-76
2023/12/25 08:52:49;;;;;;;9.13;2.38;;;10.20;99.90;;;;;;5074053;27;20067;-76
2023/12/25 08:55:15;;;;;;;9.45;2.05;;;10.10;99.90;;;;;;5081590;27;20039;-76
2023/12/25 08:57:41;;;;;;;11.73;2.45;;;10.10;99.90;;;;;;5081479;27;20055;-76
2023/12/25 09:00:08;;;;;;;12.70;2.70;;;10.10;99.90;;;;;;5091263;28;20035;-76
2023/12/25 09:02:33;;;;;;;12.60;2.80;;;10.10;99.90;;;;;;5063306;28;20038;-76
2023/12/25 09:04:59;;;;;;;13.07;2.88;;;10.10;99.90;;;;;;5086705;27;20849;-76
2023/12/25 09:07:28;;;;;;;12.25;2.47;;;10.10;99.90;;;;;;5087233;28;20142;-76
2023/12/25 09:09:53;;;;;;;13.85;2.42;;;10.10;99.90;;;;;;5093339;27;20051;-76
2023/12/25 09:12:19;;;;;;;11.18;2.58;;;10.20;99.90;;;;;;5088814;28;20263;-76
2023/12/25 09:14:46;;;;;;;15.55;2.60;;;10.10;99.90;;;;;;5072767;28;20043;-76
2023/12/25 09:17:12;;;;;;;14.38;2.60;;;10.10;99.90;;;;;;5091453;27;20392;-76
2023/12/25 09:19:38;;;;;;;11.25;2.42;;;10.20;99.90;;;;;;5090034;27;20063;-76
2023/12/25 09:22:03;;;;;;;12.93;2.50;;;10.20;99.90;;;;;;5078661;28;20062;-76
2023/12/25 09:24:29;;;;;;;16.50;3.28;;;10.20;99.90;;;;;;5081075;28;20039;-76
2023/12/25 09:26:58;;;;;;;9.65;2.30;;;10.20;99.90;;;;;;5070293;27;20497;-76
2023/12/25 09:29:24;;;;;;;14.18;2.55;;;10.20;99.90;;;;;;5078166;28;20121;-76
2023/12/25 09:31:49;;;;;;;13.65;2.63;;;10.20;99.90;;;;;;5082746;27;20605;-76
2023/12/25 09:34:15;;;;;;;9.23;2.22;;;10.20;99.90;;;;;;5066713;27;20651;-76
2023/12/25 09:36:41;;;;;;;11.77;2.35;;;10.20;99.90;;;;;;5081418;28;20702;-76
2023/12/25 09:39:06;;;;;;;13.30;2.85;;;10.20;99.90;;;;;;5081713;27;20047;-76
2023/12/25 09:41:34;;;;;;;14.20;2.58;;;10.20;99.90;;;;;;5092625;28;20055;-76
2023/12/25 09:44:00;;;;;;;11.50;2.60;;;10.20;99.90;;;;;;5067279;27;20046;-76
2023/12/25 09:46:28;;;;;;;11.95;2.30;;;10.30;99.90;;;;;;5076144;28;20040;-76
2023/12/25 09:48:55;;;;;;;12.50;2.42;;;10.30;99.90;;;;;;5085007;27;20050;-76
2023/12/25 09:51:22;;;;;;;12.43;2.65;;;10.30;99.90;;;;;;5071666;27;20031;-76
2023/12/25 09:53:48;;;;;;;7.50;2.10;;;10.40;99.90;;;;;;5066269;27;20047;-76
2023/12/25 09:56:16;;;;;;;14.57;2.92;;;10.40;99.90;;;;;;5083866;27;20042;-76
2023/12/25 09:58:44;;;;;;;11.90;2.50;;;10.40;99.90;;;;;;5084421;28;20057;-76
2023/12/25 10:01:13;;;;;;;9.80;2.90;;;10.50;99.90;;;;;;5080685;28;20067;-76
2023/12/25 10:03:47;;;;;;;10.60;2.75;;;10.50;99.90;;;;;;5062750;28;20122;-76
2023/12/25 10:06:13;;;;;;;13.98;2.50;;;10.50;99.90;;;;;;5072807;28;20043;-76
2023/12/25 10:08:39;;;;;;;14.88;2.75;;;10.50;99.90;;;;;;5068302;28;20131;-76
2023/12/25 10:11:12;;;;;;;17.75;3.30;;;10.50;99.90;;;;;;5076421;28;20160;-76
2023/12/25 10:13:38;;;;;;;11.45;2.85;;;10.60;99.90;;;;;;5079533;28;20130;-76
2023/12/25 10:16:05;;;;;;;13.63;2.67;;;10.60;99.90;;;;;;5085763;28;20127;-76
2023/12/25 10:18:33;;;;;;;16.52;3.08;;;10.60;99.90;;;;;;5068925;28;20806;-75
2023/12/25 10:21:01;;;;;;;16.25;3.47;;;10.60;99.90;;;;;;5064528;28;20048;-75
2023/12/25 10:23:29;;;;;;;13.57;2.72;;;10.60;99.90;;;;;;5082866;28;20043;-76
2023/12/25 10:25:59;;;;;;;11.40;3.35;;;10.70;99.90;;;;;;5062245;28;20056;-76
2023/12/25 10:28:29;;;;;;;11.55;2.60;;;10.70;99.90;;;;;;5089842;28;20043;-76
2023/12/25 10:31:03;;;;;;;12.20;2.72;;;10.70;99.90;;;;;;5085442;28;20108;-76
2023/12/25 10:33:30;;;;;;;12.63;3.13;;;10.70;99.90;;;;;;5077434;28;20046;-76
2023/12/25 10:36:09;;;;;;;13.27;2.50;;;10.70;99.90;;;;;;5087562;28;20523;-76
2023/12/25 10:38:39;;;;;;;14.52;3.08;;;10.70;99.90;;;;;;5064157;28;20048;-76
2023/12/25 10:41:22;;;;;;;12.30;2.72;;;10.70;99.90;;;;;;5067055;28;20044;-76
2023/12/25 10:44:00;;;;;;;12.93;3.33;;;10.70;99.90;;;;;;5083358;28;20085;-76
2023/12/25 10:46:30;;;;;;;14.73;3.17;;;10.70;99.90;;;;;;5082504;28;20122;-75
2023/12/25 10:48:56;;;;;;;12.38;3.00;;;10.60;99.90;;;;;;5062586;28;20040;-76
2023/12/25 10:51:28;;;;;;;15.02;3.17;;;10.60;99.90;;;;;;5086313;28;20502;-76
2023/12/25 10:53:59;;;;;;;14.98;3.00;;;10.60;99.90;;;;;;5064491;28;20516;-75
2023/12/25 10:56:30;;;;;;;14.40;3.45;;;10.60;99.90;;;;;;5081477;28;20127;-76
2023/12/25 10:59:04;;;;;;;15.57;3.28;;;10.60;99.90;;;;;;5066045;28;20570;-76
2023/12/25 11:01:31;;;;;;;10.63;2.67;;;10.60;99.90;;;;;;5064003;28;20787;-76
2023/12/25 11:03:58;;;;;;;15.82;3.38;;;10.60;99.90;;;;;;5088699;28;20297;-76
2023/12/25 11:06:25;;;;;;;14.30;2.72;;;10.60;99.90;;;;;;5062947;28;20799;-76
2023/12/25 11:08:54;;;;;;;11.63;2.42;;;10.60;99.90;;;;;;5061565;28;20070;-76
2023/12/25 11:11:21;;;;;;;10.55;2.50;;;10.60;99.90;;;;;;5062237;28;20566;-75
2023/12/25 11:13:47;;;;;;;10.48;2.08;;;10.60;99.90;;;;;;5082453;28;20135;-76
2023/12/25 11:16:13;;;;;;;16.27;3.55;;;10.50;99.90;;;;;;5063169;28;20756;-76
2023/12/25 11:18:39;;;;;;;12.60;2.72;;;10.60;99.90;;;;;;5073246;28;20074;-81
2023/12/25 11:21:07;;;;;;;13.50;2.50;;;10.50;99.90;;;;;;5091253;27;20060;-81
2023/12/25 11:23:35;;;;;;;9.35;2.50;;;10.60;99.90;;;;;;5089523;27;20039;-81
2023/12/25 11:26:03;;;;;;;15.80;2.95;;;10.50;99.90;;;;;;5074332;27;20048;-80
2023/12/25 11:28:33;;;;;;;9.68;2.63;;;10.50;99.90;;;;;;5098780;27;20035;-81
2023/12/25 11:31:03;;;;;;;11.30;2.50;;;10.50;99.90;;;;;;5085946;28;20523;-80
2023/12/25 11:33:40;;;;;;;10.68;2.67;;;10.50;99.90;;;;;;5095980;27;20039;-81
2023/12/25 11:36:14;;;;;;;12.48;2.95;;;10.50;99.90;;;;;;5083836;28;20076;-81
2023/12/25 11:38:42;;;;;;;11.10;2.55;;;10.50;99.90;;;;;;5081159;28;20056;-81
2023/12/25 11:41:13;;;;;;;13.40;3.22;;;10.50;99.90;;;;;;5072597;28;20063;-81
2023/12/25 11:43:40;;;;;;;12.70;2.83;;;10.50;99.90;;;;;;5069101;28;20058;-81
2023/12/25 11:46:12;;;;;;;12.15;2.78;;;10.50;99.90;;;;;;5066140;28;20482;-81
2023/12/25 11:48:38;;;;;;;15.40;3.08;;;10.50;99.90;;;;;;5093126;28;20059;-81
2023/12/25 11:51:20;;;;;;;14.70;2.97;;;10.60;99.90;;;;;;5067632;28;20040;-80
2023/12/25 11:53:46;;;;;;;13.55;2.97;;;10.60;99.90;;;;;;5064731;27;20043;-81
2023/12/25 11:56:12;;;;;;;14.25;2.90;;;10.60;99.90;;;;;;5069372;28;20048;-81
2023/12/25 11:58:39;;;;;;;12.65;2.42;;;10.60;99.90;;;;;;5096064;27;20374;-80
2023/12/25 12:01:05;;;;;;;13.90;2.70;;;10.60;99.90;;;;;;5085130;28;20375;-81
2023/12/25 12:03:33;;;;;;;9.80;2.50;;;10.60;99.90;;;;;;5088674;27;20085;-81
2023/12/25 12:05:59;;;;;;;10.15;2.45;;;10.70;99.90;;;;;;5068004;27;20047;-80
2023/12/25 12:08:28;;;;;;;11.63;3.10;;;10.60;99.90;;;;;;5084065;28;20062;-80
2023/12/25 12:10:54;;;;;;;14.52;3.28;;;10.70;99.90;;;;;;5070963;28;20295;-81
2023/12/25 12:13:20;;;;;;;14.02;2.95;;;10.70;99.90;;;;;;5073181;27;20074;-80
2023/12/25 12:15:46;;;;;;;10.98;2.67;;;10.70;99.90;;;;;;5088274;27;20120;-75
2023/12/25 12:18:11;;;;;;;11.02;2.88;;;10.80;99.90;;;;;;5075973;27;20497;-75
2023/12/25 12:20:37;;;;;;;16.27;3.00;;;10.70;99.90;;;;;;5062870;27;20051;-75
2023/12/25 12:23:04;;;;;;;12.10;2.58;;;10.70;99.90;;;;;;5083909;28;20040;-75
2023/12/25 12:25:30;;;;;;;13.45;2.92;;;10.70;99.90;;;;;;5068865;27;20518;-75
2023/12/25 12:28:00;;;;;;;11.88;2.80;;;10.70;99.90;;;;;;5080421;28;20040;-75
2023/12/25 12:30:28;;;;;;;;;;;10.70;99.90;;;;;;5080765;28;20493;-76
2023/12/25 12:32:54;;;;;;;14.68;3.17;;;10.70;99.90;;;;;;5081859;27;19924;-75
2023/12/25 12:35:19;;;;;;;15.13;3.65;;;10.70;99.90;;;;;;5086644;28;20048;-76
2023/12/25 12:37:45;;;;;;;12.57;2.90;;;10.70;99.90;;;;;;5070522;28;20048;-75